createdAt,value
2023-07-06T00:01:02.265Z,2.10
2023-07-06T00:03:32.736Z,2.38
2023-07-06T00:06:02.790Z,2.20
2023-07-06T00:08:33.840Z,2.17
2023-07-06T00:11:02.606Z,2.28
2023-07-06T00:13:31.067Z,2.30
2023-07-06T00:16:01.112Z,2.50
2023-07-06T00:18:29.747Z,2.50
2023-07-06T00:20:58.941Z,2.28
2023-07-06T00:23:29.248Z,2.15
2023-07-06T00:25:58.193Z,2.47
2023-07-06T00:28:29.424Z,2.30
2023-07-06T00:31:03.900Z,2.55
2023-07-06T00:33:33.309Z,2.60
2023-07-06T00:36:04.490Z,2.50
2023-07-06T00:38:34.517Z,2.38
2023-07-06T00:41:03.779Z,2.53
2023-07-06T00:43:47.037Z,2.72
2023-07-06T00:46:15.768Z,2.72
2023-07-06T00:48:46.365Z,2.58
2023-07-06T00:51:17.751Z,2.72
2023-07-06T00:53:49.605Z,2.50
2023-07-06T00:56:20.031Z,2.70
2023-07-06T00:58:49.825Z,2.40
2023-07-06T01:01:20.390Z,2.33
2023-07-06T01:03:53.238Z,2.40
2023-07-06T01:06:28.635Z,2.50
2023-07-06T01:08:58.691Z,2.65
2023-07-06T01:11:30.277Z,2.65
2023-07-06T01:13:59.785Z,2.33
2023-07-06T01:16:33.115Z,2.38
2023-07-06T01:19:06.100Z,2.72
2023-07-06T01:21:40.518Z,2.47
2023-07-06T01:24:21.414Z,2.67
2023-07-06T01:27:01.550Z,2.60
2023-07-06T01:29:58.680Z,2.38
2023-07-06T01:32:31.564Z,2.42
2023-07-06T01:35:02.931Z,2.75
2023-07-06T01:37:33.833Z,2.65
2023-07-06T01:40:04.913Z,2.83
2023-07-06T01:42:33.901Z,2.47
2023-07-06T01:45:04.690Z,2.58
2023-07-06T01:47:36.708Z,2.47
2023-07-06T01:50:07.661Z,2.60
2023-07-06T01:52:40.393Z,2.55
2023-07-06T01:55:14.685Z,2.47
2023-07-06T01:58:00.492Z,2.50
2023-07-06T02:00:31.282Z,2.35
2023-07-06T02:03:01.872Z,2.50
2023-07-06T02:05:30.736Z,2.65
2023-07-06T02:07:59.112Z,2.47
2023-07-06T02:10:27.538Z,2.20
2023-07-06T02:12:55.907Z,2.50
2023-07-06T02:15:24.242Z,2.63
2023-07-06T02:17:56.464Z,2.28
2023-07-06T02:20:26.512Z,2.17
2023-07-06T02:22:55.100Z,2.70
2023-07-06T02:25:24.596Z,2.33
2023-07-06T02:27:53.070Z,2.22
2023-07-06T02:30:21.424Z,2.55
2023-07-06T02:32:49.946Z,2.00
2023-07-06T02:35:18.801Z,2.60
2023-07-06T02:37:49.357Z,2.38
2023-07-06T02:40:18.471Z,2.45
2023-07-06T02:42:47.151Z,2.40
2023-07-06T02:45:15.637Z,2.53
2023-07-06T02:47:44.114Z,2.35
2023-07-06T02:50:13.603Z,2.67
2023-07-06T02:52:43.334Z,2.50
2023-07-06T02:55:13.674Z,2.20
2023-07-06T02:57:42.079Z,2.60
2023-07-06T03:00:14.516Z,2.22
2023-07-06T03:02:43.226Z,2.55
2023-07-06T03:05:12.675Z,2.38
2023-07-06T03:07:41.457Z,2.30
2023-07-06T03:10:10.790Z,2.53
2023-07-06T03:12:40.567Z,2.25
2023-07-06T03:15:11.723Z,2.50
2023-07-06T03:17:40.682Z,2.40
2023-07-06T03:20:15.279Z,2.67
2023-07-06T03:22:47.012Z,2.88
2023-07-06T03:25:15.850Z,2.28
2023-07-06T03:27:47.410Z,2.22
2023-07-06T03:30:17.034Z,2.40
2023-07-06T03:32:45.496Z,2.08
2023-07-06T03:35:14.405Z,2.40
2023-07-06T03:37:43.942Z,2.53
2023-07-06T03:40:13.566Z,2.55
2023-07-06T03:42:44.317Z,2.40
2023-07-06T03:45:15.328Z,2.50
2023-07-06T03:47:44.461Z,2.92
2023-07-06T03:50:13.730Z,2.78
2023-07-06T03:52:43.083Z,2.72
2023-07-06T03:55:14.218Z,2.40
2023-07-06T03:57:58.981Z,2.65
2023-07-06T04:00:34.959Z,2.55
2023-07-06T04:03:04.916Z,2.50
2023-07-06T04:05:35.743Z,2.85
2023-07-06T04:08:05.822Z,2.90
2023-07-06T04:10:35.079Z,3.00
2023-07-06T04:13:03.630Z,2.67
2023-07-06T04:15:33.720Z,2.88
2023-07-06T04:18:02.372Z,2.88
2023-07-06T04:20:31.804Z,2.70
2023-07-06T04:23:00.800Z,2.83
2023-07-06T04:25:31.402Z,2.67
2023-07-06T04:28:00.253Z,2.95
2023-07-06T04:30:30.818Z,3.00
2023-07-06T04:33:00.637Z,2.92
2023-07-06T04:35:29.418Z,3.40
2023-07-06T04:37:57.696Z,3.00
2023-07-06T04:40:27.749Z,3.70
2023-07-06T04:42:56.763Z,2.90
2023-07-06T04:45:26.893Z,3.42
2023-07-06T04:47:58.383Z,2.78
2023-07-06T04:50:28.695Z,3.05
2023-07-06T04:53:01.265Z,2.90
2023-07-06T04:55:30.337Z,2.60
2023-07-06T04:58:00.566Z,2.83
2023-07-06T05:00:30.749Z,2.70
2023-07-06T05:03:00.596Z,3.10
2023-07-06T05:05:31.831Z,3.00
2023-07-06T05:08:00.389Z,3.05
2023-07-06T05:10:29.335Z,2.42
2023-07-06T05:13:00.733Z,2.85
2023-07-06T05:15:29.209Z,2.90
2023-07-06T05:17:58.073Z,2.90
2023-07-06T05:20:26.511Z,2.63
2023-07-06T05:22:56.172Z,3.08
2023-07-06T05:25:24.555Z,3.00
2023-07-06T05:27:53.135Z,3.40
2023-07-06T05:30:22.565Z,3.20
2023-07-06T05:32:52.224Z,2.72
2023-07-06T05:35:21.072Z,3.10
2023-07-06T05:37:49.974Z,3.05
2023-07-06T05:40:19.876Z,2.92
2023-07-06T05:42:48.228Z,2.65
2023-07-06T05:45:16.899Z,2.90
2023-07-06T05:47:46.452Z,2.78
2023-07-06T05:50:15.020Z,2.72
2023-07-06T05:52:43.710Z,2.78
2023-07-06T05:55:12.528Z,3.25
2023-07-06T05:57:42.604Z,2.95
2023-07-06T06:00:11.913Z,2.80
2023-07-06T06:02:41.058Z,3.03
2023-07-06T06:05:09.871Z,3.45
2023-07-06T06:07:39.644Z,3.47
2023-07-06T06:10:08.453Z,3.20
2023-07-06T06:12:39.957Z,3.08
2023-07-06T06:15:11.203Z,2.60
2023-07-06T06:17:39.758Z,2.60
2023-07-06T06:20:10.320Z,2.80
2023-07-06T06:22:39.297Z,2.63
2023-07-06T06:25:08.165Z,2.42
2023-07-06T06:27:36.659Z,2.10
2023-07-06T06:30:06.352Z,2.70
2023-07-06T06:32:37.373Z,2.13
2023-07-06T06:35:06.088Z,2.20
2023-07-06T06:37:34.798Z,2.67
2023-07-06T06:40:04.085Z,2.70
2023-07-06T06:42:32.955Z,2.15
2023-07-06T06:45:01.314Z,2.60
2023-07-06T06:47:29.753Z,2.28
2023-07-06T06:49:59.530Z,2.10
2023-07-06T06:52:27.972Z,2.50
2023-07-06T06:54:56.361Z,2.58
2023-07-06T06:57:24.925Z,2.50
2023-07-06T06:59:54.677Z,2.50
2023-07-06T07:02:23.289Z,2.40
2023-07-06T07:04:51.655Z,1.83
2023-07-06T07:07:21.701Z,2.70
2023-07-06T07:09:51.435Z,2.25
2023-07-06T07:12:20.375Z,1.77
2023-07-06T07:14:49.473Z,1.92
2023-07-06T07:17:17.968Z,1.83
2023-07-06T07:19:49.635Z,2.00
2023-07-06T07:22:18.599Z,1.77
2023-07-06T07:24:48.674Z,2.13
2023-07-06T07:27:17.381Z,1.80
2023-07-06T07:29:48.528Z,1.58
2023-07-06T07:32:17.017Z,1.63
2023-07-06T07:34:45.887Z,1.65
2023-07-06T07:37:15.481Z,1.30
2023-07-06T07:39:44.858Z,1.23
2023-07-06T07:42:15.129Z,1.35
2023-07-06T07:44:45.745Z,1.02
2023-07-06T07:47:14.326Z,1.13
2023-07-06T07:49:42.792Z,1.40
2023-07-06T07:52:13.524Z,1.20
2023-07-06T07:54:43.674Z,1.20
2023-07-06T07:57:12.683Z,0.90
2023-07-06T07:59:42.483Z,1.20
2023-07-06T08:02:11.281Z,1.10
2023-07-06T08:04:40.446Z,1.17
2023-07-06T08:07:08.959Z,1.08
2023-07-06T08:09:37.338Z,1.20
2023-07-06T08:12:06.816Z,1.00
2023-07-06T08:14:36.355Z,1.20
2023-07-06T08:17:06.593Z,1.00
2023-07-06T08:19:53.051Z,1.23
2023-07-06T08:22:24.099Z,0.80
2023-07-06T08:24:53.584Z,1.00
2023-07-06T08:27:23.614Z,1.55
2023-07-06T08:29:53.080Z,0.90
2023-07-06T08:32:23.599Z,0.70
2023-07-06T08:34:52.666Z,0.82
2023-07-06T08:37:21.936Z,1.00
2023-07-06T08:39:50.495Z,1.02
2023-07-06T08:42:22.274Z,1.20
2023-07-06T08:44:52.884Z,1.15
2023-07-06T08:47:26.420Z,1.15
2023-07-06T08:49:55.368Z,0.98
2023-07-06T08:52:25.537Z,0.90
2023-07-06T08:54:54.351Z,0.90
2023-07-06T08:57:24.186Z,0.80
2023-07-06T08:59:53.546Z,1.10
2023-07-06T09:02:24.505Z,0.90
2023-07-06T09:04:54.265Z,1.13
2023-07-06T09:07:25.599Z,0.95
2023-07-06T09:09:59.248Z,1.20
2023-07-06T09:12:33.918Z,0.90
2023-07-06T09:15:04.858Z,1.10
2023-07-06T09:17:35.805Z,1.00
2023-07-06T09:20:05.740Z,1.27
2023-07-06T09:22:34.661Z,0.95
2023-07-06T09:25:06.650Z,1.10
2023-07-06T09:27:35.130Z,1.00
2023-07-06T09:30:04.715Z,1.20
2023-07-06T09:32:35.801Z,1.30
2023-07-06T09:35:07.194Z,1.30
2023-07-06T09:37:35.736Z,1.27
2023-07-06T09:40:05.612Z,1.20
2023-07-06T09:42:35.151Z,1.27
2023-07-06T09:45:05.679Z,1.20
2023-07-06T09:47:36.118Z,1.10
2023-07-06T09:50:09.812Z,1.02
2023-07-06T09:52:40.001Z,1.10
2023-07-06T09:55:13.271Z,1.17
2023-07-06T09:57:42.109Z,1.40
2023-07-06T10:00:17.796Z,1.30
2023-07-06T10:02:54.832Z,1.20
2023-07-06T10:05:28.057Z,1.55
2023-07-06T10:07:58.966Z,1.17
2023-07-06T10:10:36.397Z,1.30
2023-07-06T10:13:08.022Z,1.30
2023-07-06T10:15:46.152Z,1.30
2023-07-06T10:18:19.496Z,1.27
2023-07-06T10:20:52.808Z,1.20
2023-07-06T10:23:27.593Z,1.25
2023-07-06T10:26:02.671Z,1.35
2023-07-06T10:28:33.837Z,1.17
2023-07-06T10:31:04.601Z,1.38
2023-07-06T10:33:38.215Z,1.58
2023-07-06T10:36:08.969Z,1.42
2023-07-06T10:38:37.839Z,1.33
2023-07-06T10:41:26.601Z,1.30
2023-07-06T10:44:00.341Z,1.25
2023-07-06T10:46:31.760Z,1.40
2023-07-06T10:49:15.799Z,1.23
2023-07-06T10:51:48.685Z,1.23
2023-07-06T10:54:19.350Z,1.58
2023-07-06T10:56:50.800Z,1.42
2023-07-06T10:59:20.062Z,1.33
2023-07-06T11:01:49.578Z,1.42
2023-07-06T11:04:46.433Z,1.20
2023-07-06T11:07:17.445Z,1.45
2023-07-06T11:09:49.310Z,1.58
2023-07-06T11:12:20.738Z,1.38
2023-07-06T11:14:51.739Z,1.20
2023-07-06T11:17:26.700Z,1.30
2023-07-06T11:19:58.126Z,1.30
2023-07-06T11:22:27.285Z,1.30
2023-07-06T11:24:59.126Z,1.48
2023-07-06T11:27:31.090Z,1.50
2023-07-06T11:30:04.311Z,1.48
2023-07-06T11:32:38.090Z,1.38
2023-07-06T11:35:17.166Z,1.38
2023-07-06T11:37:58.863Z,1.27
2023-07-06T11:40:35.022Z,1.50
2023-07-06T11:43:09.091Z,1.33
2023-07-06T11:45:44.471Z,1.42
2023-07-06T11:48:20.707Z,1.15
2023-07-06T11:50:51.582Z,1.50
2023-07-06T11:53:30.889Z,1.45
2023-07-06T11:56:06.943Z,1.30
2023-07-06T11:58:54.936Z,1.10
2023-07-06T12:01:33.493Z,1.33
2023-07-06T12:04:03.442Z,1.00
2023-07-06T12:06:33.461Z,1.30
2023-07-06T12:09:03.135Z,1.40
2023-07-06T12:11:31.680Z,1.15
2023-07-06T12:14:01.198Z,0.82
2023-07-06T12:16:31.764Z,1.13
2023-07-06T12:19:05.260Z,1.35
2023-07-06T12:21:35.982Z,1.60
2023-07-06T12:24:05.678Z,1.02
2023-07-06T12:26:36.417Z,1.30
2023-07-06T12:29:08.892Z,1.10
2023-07-06T12:31:41.397Z,1.20
2023-07-06T12:34:10.644Z,1.30
2023-07-06T12:36:43.666Z,1.25
2023-07-06T12:39:17.069Z,1.17
2023-07-06T12:41:52.637Z,1.48
2023-07-06T12:44:25.484Z,1.10
2023-07-06T12:46:54.975Z,1.40
2023-07-06T12:49:24.628Z,1.25
2023-07-06T12:51:56.192Z,1.38
2023-07-06T12:54:25.585Z,1.20
2023-07-06T12:57:01.090Z,1.30
2023-07-06T12:59:34.340Z,1.27
2023-07-06T13:02:09.590Z,1.30
2023-07-06T13:04:45.104Z,1.00
2023-07-06T13:07:18.106Z,1.25
2023-07-06T13:09:46.700Z,1.23
2023-07-06T13:12:19.801Z,1.23
2023-07-06T13:14:48.753Z,1.40
2023-07-06T13:17:18.401Z,1.30
2023-07-06T13:19:47.820Z,1.30
2023-07-06T13:22:17.895Z,1.55
2023-07-06T13:24:47.581Z,1.27
2023-07-06T13:27:17.226Z,1.10
2023-07-06T13:29:46.728Z,1.38
2023-07-06T13:32:19.580Z,1.40
2023-07-06T13:34:50.586Z,1.52
2023-07-06T13:37:23.524Z,1.40
2023-07-06T13:39:52.365Z,1.15
2023-07-06T13:42:22.293Z,1.23
2023-07-06T13:44:51.141Z,1.02
2023-07-06T13:47:20.395Z,1.10
2023-07-06T13:49:53.522Z,1.20
2023-07-06T13:52:23.585Z,1.60
2023-07-06T13:54:51.996Z,1.63
2023-07-06T13:57:21.711Z,1.45
2023-07-06T13:59:50.624Z,1.20
2023-07-06T14:02:22.315Z,1.27
2023-07-06T14:04:50.834Z,1.23
2023-07-06T14:07:19.986Z,1.60
2023-07-06T14:09:50.608Z,1.10
2023-07-06T14:12:22.302Z,1.40
2023-07-06T14:14:51.325Z,0.98
2023-07-06T14:17:19.812Z,1.10
2023-07-06T14:20:01.940Z,1.10
2023-07-06T14:22:32.056Z,1.30
2023-07-06T14:25:02.000Z,1.27
2023-07-06T14:27:31.221Z,1.30
2023-07-06T14:30:00.259Z,1.70
2023-07-06T14:32:29.173Z,1.15
2023-07-06T14:34:57.676Z,1.30
2023-07-06T14:37:25.995Z,1.25
2023-07-06T14:39:54.440Z,1.55
2023-07-06T14:42:24.258Z,1.17
2023-07-06T14:44:52.743Z,1.35
2023-07-06T14:47:21.152Z,1.50
2023-07-06T14:49:50.374Z,1.30
2023-07-06T14:52:18.934Z,1.05
2023-07-06T14:54:48.644Z,1.27
2023-07-06T14:57:17.108Z,1.52
2023-07-06T14:59:46.936Z,1.48
2023-07-06T15:02:16.648Z,1.15
2023-07-06T15:04:48.353Z,1.50
2023-07-06T15:07:18.039Z,1.15
2023-07-06T15:09:46.497Z,1.30
2023-07-06T15:12:14.826Z,1.20
2023-07-06T15:14:43.437Z,1.42
2023-07-06T15:17:13.186Z,1.10
2023-07-06T15:19:41.988Z,1.38
2023-07-06T15:22:10.353Z,1.50
2023-07-06T15:24:38.788Z,1.40
2023-07-06T15:27:07.365Z,1.23
2023-07-06T15:29:36.023Z,1.05
2023-07-06T15:32:04.627Z,1.60
2023-07-06T15:34:34.489Z,1.65
2023-07-06T15:37:03.918Z,1.23
2023-07-06T15:39:32.372Z,1.27
2023-07-06T15:42:00.890Z,1.20
2023-07-06T15:44:30.268Z,1.40
2023-07-06T15:46:58.706Z,1.20
2023-07-06T15:49:27.124Z,1.30
2023-07-06T15:51:56.870Z,1.40
2023-07-06T15:54:25.720Z,1.10
2023-07-06T15:56:54.117Z,1.60
2023-07-06T15:59:22.961Z,1.77
2023-07-06T16:01:51.525Z,1.10
2023-07-06T16:04:20.021Z,1.10
2023-07-06T16:06:48.636Z,1.35
2023-07-06T16:09:18.344Z,1.75
2023-07-06T16:11:46.838Z,2.10
2023-07-06T16:14:18.479Z,1.40
2023-07-06T16:16:47.707Z,1.30
2023-07-06T16:19:16.809Z,1.40
2023-07-06T16:21:45.274Z,1.27
2023-07-06T16:24:14.906Z,1.23
2023-07-06T16:26:46.118Z,1.50
2023-07-06T16:29:15.033Z,1.30
2023-07-06T16:31:43.535Z,1.55
2023-07-06T16:34:12.569Z,1.20
2023-07-06T16:36:40.966Z,1.30
2023-07-06T16:39:09.549Z,1.13
2023-07-06T16:41:37.988Z,1.60
2023-07-06T16:44:08.056Z,1.50
2023-07-06T16:46:36.491Z,1.38
2023-07-06T16:49:04.897Z,1.40
2023-07-06T16:51:33.359Z,1.58
2023-07-06T16:54:01.734Z,1.52
2023-07-06T16:56:30.084Z,1.25
2023-07-06T16:58:58.425Z,1.40
2023-07-06T17:01:28.208Z,1.40
2023-07-06T17:03:56.728Z,1.27
2023-07-06T17:06:25.100Z,1.15
2023-07-06T17:08:53.563Z,1.20
2023-07-06T17:11:21.975Z,1.67
2023-07-06T17:13:50.536Z,1.42
2023-07-06T17:16:19.090Z,1.70
2023-07-06T17:18:48.968Z,1.20
2023-07-06T17:21:17.434Z,1.27
2023-07-06T17:23:48.333Z,1.55
2023-07-06T17:26:16.778Z,1.27
2023-07-06T17:28:45.268Z,1.23
2023-07-06T17:31:15.348Z,2.22
2023-07-06T17:33:43.922Z,1.58
2023-07-06T17:36:13.762Z,2.17
2023-07-06T17:38:42.326Z,2.47
2023-07-06T17:41:11.624Z,1.75
2023-07-06T17:43:40.566Z,1.83
2023-07-06T17:46:09.211Z,2.30
2023-07-06T17:48:38.249Z,1.48
2023-07-06T17:51:07.451Z,1.50
2023-07-06T17:53:37.548Z,1.80
2023-07-06T17:56:06.479Z,3.35
2023-07-06T17:58:34.883Z,1.95
2023-07-06T18:01:06.160Z,2.00
2023-07-06T18:03:34.556Z,1.88
2023-07-06T18:06:03.568Z,1.35
2023-07-06T18:08:32.025Z,1.42
2023-07-06T18:11:01.792Z,1.45
2023-07-06T18:13:30.421Z,1.42
2023-07-06T18:15:59.446Z,1.42
2023-07-06T18:18:28.044Z,1.90
2023-07-06T18:20:56.615Z,1.52
2023-07-06T18:23:25.434Z,1.67
2023-07-06T18:25:53.782Z,1.55
2023-07-06T18:28:23.469Z,1.65
2023-07-06T18:30:51.852Z,1.52
2023-07-06T18:33:20.421Z,1.50
2023-07-06T18:35:50.269Z,1.77
2023-07-06T18:38:18.916Z,1.80
2023-07-06T18:40:54.535Z,1.83
2023-07-06T18:43:25.092Z,1.92
2023-07-06T18:45:54.942Z,2.58
2023-07-06T18:48:23.371Z,1.63
2023-07-06T18:50:52.268Z,1.67
2023-07-06T18:53:26.404Z,1.90
2023-07-06T18:55:58.141Z,1.40
2023-07-06T18:58:27.844Z,1.58
2023-07-06T19:00:56.362Z,1.48
2023-07-06T19:03:24.992Z,1.38
2023-07-06T19:05:53.535Z,1.40
2023-07-06T19:08:21.956Z,1.50
2023-07-06T19:10:50.386Z,1.35
2023-07-06T19:13:18.936Z,1.27
2023-07-06T19:15:50.715Z,1.38
2023-07-06T19:18:19.132Z,1.23
2023-07-06T19:20:47.749Z,1.08
2023-07-06T19:23:16.442Z,1.17
2023-07-06T19:25:45.213Z,1.27
2023-07-06T19:28:13.667Z,1.30
2023-07-06T19:30:43.057Z,1.13
2023-07-06T19:33:12.851Z,1.20
2023-07-06T19:35:41.299Z,1.02
2023-07-06T19:38:09.672Z,1.35
2023-07-06T19:40:38.061Z,1.20
2023-07-06T19:43:06.462Z,1.42
2023-07-06T19:45:35.829Z,1.50
2023-07-06T19:48:07.438Z,1.30
2023-07-06T19:50:37.340Z,1.40
2023-07-06T19:53:05.663Z,1.20
2023-07-06T19:55:36.532Z,1.48
2023-07-06T19:58:04.914Z,1.40
2023-07-06T20:00:33.990Z,1.20
2023-07-06T20:03:02.556Z,1.30
2023-07-06T20:05:34.354Z,1.08
2023-07-06T20:08:04.102Z,1.30
2023-07-06T20:10:32.556Z,1.65
2023-07-06T20:13:00.927Z,1.20
2023-07-06T20:15:29.477Z,1.40
2023-07-06T20:17:59.613Z,1.52
2023-07-06T20:20:28.650Z,1.80
2023-07-06T20:22:57.024Z,1.20
2023-07-06T20:25:26.730Z,1.40
2023-07-06T20:27:55.139Z,1.20
2023-07-06T20:30:23.505Z,1.30
2023-07-06T20:32:51.949Z,1.10
2023-07-06T20:35:20.426Z,1.40
2023-07-06T20:37:48.761Z,1.40
2023-07-06T20:40:17.201Z,1.27
2023-07-06T20:42:46.941Z,1.50
2023-07-06T20:45:15.356Z,1.33
2023-07-06T20:47:43.737Z,1.50
2023-07-06T20:50:12.276Z,1.50
2023-07-06T20:52:40.664Z,1.33
2023-07-06T20:55:09.249Z,1.52
2023-07-06T20:57:37.821Z,1.13
2023-07-06T21:00:09.445Z,1.58
2023-07-06T21:02:37.936Z,1.80
2023-07-06T21:05:06.452Z,2.08
2023-07-06T21:07:34.902Z,1.77
2023-07-06T21:10:03.403Z,1.40
2023-07-06T21:12:32.299Z,1.75
2023-07-06T21:15:00.704Z,1.60
2023-07-06T21:17:30.558Z,1.58
2023-07-06T21:19:58.993Z,1.80
2023-07-06T21:22:27.355Z,1.67
2023-07-06T21:24:55.985Z,1.73
2023-07-06T21:27:24.329Z,1.60
2023-07-06T21:29:52.711Z,1.80
2023-07-06T21:32:21.141Z,1.70
2023-07-06T21:34:50.892Z,1.92
2023-07-06T21:37:19.389Z,1.63
2023-07-06T21:39:47.775Z,1.55
2023-07-06T21:42:16.179Z,1.50
2023-07-06T21:44:44.530Z,1.58
2023-07-06T21:47:14.440Z,2.03
2023-07-06T21:49:43.004Z,1.75
2023-07-06T21:52:15.634Z,1.40
2023-07-06T21:54:44.080Z,1.20
2023-07-06T21:57:12.586Z,1.58
2023-07-06T21:59:40.967Z,1.70
2023-07-06T22:02:09.387Z,1.48
2023-07-06T22:04:37.883Z,1.63
2023-07-06T22:07:06.573Z,1.85
2023-07-06T22:09:36.397Z,1.50
2023-07-06T22:12:05.069Z,1.80
2023-07-06T22:14:33.544Z,1.50
2023-07-06T22:17:02.089Z,1.42
2023-07-06T22:19:30.559Z,1.35
2023-07-06T22:21:58.967Z,2.08
2023-07-06T22:24:27.387Z,2.10
2023-07-06T22:26:57.122Z,1.63
2023-07-06T22:29:25.624Z,1.60
2023-07-06T22:31:54.101Z,1.70
2023-07-06T22:34:22.638Z,1.95
2023-07-06T22:36:50.972Z,2.22
2023-07-06T22:39:19.343Z,1.98
2023-07-06T22:41:47.721Z,1.83
2023-07-06T22:44:17.461Z,1.80
2023-07-06T22:46:45.884Z,1.80
2023-07-06T22:49:16.846Z,1.52
2023-07-06T22:51:45.312Z,1.63
2023-07-06T22:54:13.721Z,1.85
2023-07-06T22:56:42.266Z,1.45
2023-07-06T22:59:10.652Z,1.90
2023-07-06T23:01:40.441Z,1.50
2023-07-06T23:04:09.036Z,1.48
2023-07-06T23:06:37.870Z,1.88
2023-07-06T23:09:07.130Z,1.60
2023-07-06T23:11:35.907Z,1.83
2023-07-06T23:14:04.653Z,1.95
2023-07-06T23:16:33.763Z,1.58
2023-07-06T23:19:03.598Z,1.60
2023-07-06T23:21:35.862Z,1.70
2023-07-06T23:24:04.336Z,1.92
2023-07-06T23:26:34.571Z,1.67
2023-07-06T23:29:03.065Z,1.75
2023-07-06T23:31:38.744Z,1.67
2023-07-06T23:34:08.443Z,1.40
2023-07-06T23:36:36.790Z,1.60
2023-07-06T23:39:05.420Z,1.33
2023-07-06T23:41:33.834Z,1.58
2023-07-06T23:44:02.208Z,1.50
2023-07-06T23:46:30.647Z,1.50
2023-07-06T23:48:59.051Z,1.55
2023-07-06T23:51:29.855Z,2.10
2023-07-06T23:53:58.245Z,1.80
2023-07-06T23:56:26.727Z,1.60
2023-07-06T23:58:55.163Z,1.67
